Nix, Texas
Current Conditions -  °F | °C
As of 2:35 AM on Saturday 25 Oct 2014 (Local Time) from KLZZ Reporting Station
Clear Clear  
Wind Chill: 65°   Ceiling: Unl
Heat Index: 65°   Visibility: 10mi
Dew Point: 60°   Wind: 3mph
Humidity: 83%   Direction: 230°SW
Pressure: 30.14"   Gusts: NA
Location:  31.1064°N, 98.2303°W
Report Text: KLZZ 250735Z AUTO 23003KT 10SM CLR 18/15 A3014 RMK AO2 T01840154
Loading
Personal Weather Stations






























Interactive Weather Map
Tropical Storm Tracking
New forecast layout! Learn more

10-Day Weather Forecast

Advertisements
Track Severe Weather on mobile